Time;durP1;ratioP1;P1;durP2;ratioP2;P2;SDS_P1;SDS_P2;PMS_P1;PMS_P2;Temp;Humidity;BMP_temperature;BMP_pressure;BME280_temperature;BME280_humidity;BME280_pressure;Samples;Min_cycle;Max_cycle;Signal;HPM_P1;HPM_P2
2021/07/12 00:00:00;;;;;;;8.80;7.90;;;23.10;99.90;;;;;;5044702;28;20455;-80
2021/07/12 00:02:27;;;;;;;8.23;7.63;;;23.10;99.90;;;;;;5034701;28;20446;-79
2021/07/12 00:04:53;;;;;;;8.77;8.00;;;23.00;99.90;;;;;;5040893;28;20450;-78
2021/07/12 00:07:20;;;;;;;8.27;7.57;;;23.10;99.90;;;;;;5040941;28;20454;-78
2021/07/12 00:09:48;;;;;;;9.17;8.33;;;23.10;99.90;;;;;;5038809;28;20446;-78
2021/07/12 00:12:15;;;;;;;7.90;7.30;;;23.00;99.90;;;;;;5044302;28;20462;-77
2021/07/12 00:14:42;;;;;;;8.23;7.53;;;23.00;99.90;;;;;;5045080;28;20474;-78
2021/07/12 00:17:08;;;;;;;8.37;7.77;;;23.00;99.90;;;;;;5036736;28;20439;-77
2021/07/12 00:19:35;;;;;;;8.20;7.50;;;23.00;99.90;;;;;;5035690;28;20446;-78
2021/07/12 00:22:02;;;;;;;8.50;7.80;;;23.00;99.90;;;;;;5053621;28;20952;-78
2021/07/12 00:24:29;;;;;;;7.80;7.20;;;23.00;99.90;;;;;;5042811;28;20442;-78
2021/07/12 00:26:57;;;;;;;8.23;7.60;;;23.00;99.90;;;;;;5053914;28;20503;-78
2021/07/12 00:29:23;;;;;;;8.47;7.70;;;22.90;99.90;;;;;;5054450;28;20912;-78
2021/07/12 00:31:50;;;;;;;8.20;7.50;;;23.10;99.90;;;;;;5038504;28;20450;-78
2021/07/12 00:34:17;;;;;;;10.40;9.50;;;23.30;99.90;;;;;;5043819;28;20451;-78
2021/07/12 00:36:43;;;;;;;9.40;8.50;;;23.30;99.90;;;;;;5051091;28;20438;-78
2021/07/12 00:39:10;;;;;;;9.70;8.80;;;22.90;99.90;;;;;;5036180;28;20467;-78
2021/07/12 00:41:37;;;;;;;9.03;8.30;;;22.90;99.90;;;;;;5033791;28;20920;-78
2021/07/12 00:44:06;;;;;;;8.13;7.43;;;23.30;99.90;;;;;;5047138;28;20445;-78
2021/07/12 00:46:33;;;;;;;8.83;8.03;;;22.70;99.90;;;;;;5033453;28;20513;-81
2021/07/12 00:49:00;;;;;;;9.13;8.33;;;22.90;99.90;;;;;;5034919;28;20905;-80
2021/07/12 00:51:28;;;;;;;8.60;7.90;;;22.90;99.90;;;;;;5033648;28;20443;-84
2021/07/12 00:53:54;;;;;;;8.40;7.80;;;22.90;99.90;;;;;;5046429;28;20442;-83
2021/07/12 00:56:21;;;;;;;8.37;7.63;;;23.00;99.90;;;;;;5043431;28;20884;-82
2021/07/12 00:58:48;;;;;;;10.47;9.40;;;22.90;99.90;;;;;;5050587;28;20450;-83
2021/07/12 01:01:16;;;;;;;8.43;7.73;;;22.80;99.90;;;;;;5039267;28;20449;-82
2021/07/12 01:03:43;;;;;;;8.13;7.40;;;23.30;99.90;;;;;;5039467;28;20953;-81
2021/07/12 01:06:10;;;;;;;8.00;7.40;;;22.90;99.90;;;;;;5048987;28;20794;-81
2021/07/12 01:08:36;;;;;;;7.70;7.10;;;22.90;99.90;;;;;;5049911;28;20792;-82
2021/07/12 01:11:10;;;;;;;8.57;7.80;;;22.80;99.90;;;;;;5045868;28;20457;-79
2021/07/12 01:13:47;;;;;;;9.17;8.47;;;22.80;99.90;;;;;;5051810;28;20923;-79
2021/07/12 01:16:39;;;;;;;9.03;8.20;;;23.30;99.90;;;;;;5033460;28;20493;-79
2021/07/12 01:19:29;;;;;;;6.70;6.20;;;22.80;99.90;;;;;;5033185;28;20443;-78
2021/07/12 01:22:24;;;;;;;8.23;7.53;;;22.70;99.90;;;;;;5041157;28;20446;-78
2021/07/12 01:25:35;;;;;;;8.10;7.40;;;22.80;99.90;;;;;;5048356;28;20465;-78
2021/07/12 01:28:55;;;;;;;9.53;8.53;;;22.80;99.90;;;;;;5033391;28;20439;-77
2021/07/12 01:32:02;;;;;;;7.50;6.90;;;22.70;99.90;;;;;;4987152;28;20805;-79
2021/07/12 01:34:36;;;;;;;8.00;7.30;;;22.80;99.90;;;;;;5047128;28;20925;-78
2021/07/12 01:37:12;;;;;;;7.83;7.13;;;22.70;99.90;;;;;;5045466;28;20496;-78
2021/07/12 01:39:45;;;;;;;7.13;6.57;;;23.10;99.90;;;;;;5033304;28;20924;-78
2021/07/12 01:42:21;;;;;;;8.00;7.30;;;22.60;99.90;;;;;;5053008;28;20442;-78
2021/07/12 01:44:55;;;;;;;7.57;7.00;;;23.10;99.90;;;;;;5047446;28;20431;-78
2021/07/12 01:47:31;;;;;;;8.03;7.30;;;22.40;99.90;;;;;;5039740;28;20931;-78
2021/07/12 01:50:04;;;;;;;7.67;7.00;;;22.90;99.90;;;;;;5046474;28;20447;-80
2021/07/12 01:52:37;;;;;;;8.33;7.63;;;22.80;99.90;;;;;;5044977;28;20462;-79
2021/07/12 01:55:12;;;;;;;8.20;7.50;;;22.60;99.90;;;;;;5039734;28;20477;-77
2021/07/12 01:57:48;;;;;;;8.27;7.57;;;22.60;99.90;;;;;;5042809;28;20500;-77
2021/07/12 02:00:18;;;;;;;7.93;7.23;;;22.60;99.90;;;;;;5047471;28;20445;-77
2021/07/12 02:02:46;;;;;;;7.87;7.00;;;22.60;99.90;;;;;;5048293;28;20946;-77
2021/07/12 02:05:20;;;;;;;7.30;6.70;;;22.60;99.90;;;;;;5056729;28;20952;-77
2021/07/12 02:07:48;;;;;;;7.87;7.17;;;22.50;99.90;;;;;;5044302;28;20449;-77
2021/07/12 02:10:17;;;;;;;8.67;7.90;;;23.00;99.90;;;;;;5047686;28;20829;-77
2021/07/12 02:12:45;;;;;;;8.20;7.27;;;22.50;99.90;;;;;;5042166;28;20450;-77
2021/07/12 02:15:14;;;;;;;7.90;7.20;;;22.90;99.90;;;;;;5044644;28;20482;-76
2021/07/12 02:17:42;;;;;;;8.27;7.57;;;22.60;99.90;;;;;;5041966;28;20929;-77
2021/07/12 02:20:11;;;;;;;7.30;6.70;;;22.60;99.90;;;;;;5037802;28;20450;-77
2021/07/12 02:22:41;;;;;;;7.67;7.00;;;22.60;99.90;;;;;;5055725;28;20477;-77
2021/07/12 02:25:12;;;;;;;8.37;7.57;;;22.50;99.90;;;;;;5056298;28;20492;-77
2021/07/12 02:27:39;;;;;;;7.93;7.17;;;22.50;99.90;;;;;;5051752;28;20450;-77
2021/07/12 02:30:07;;;;;;;8.20;7.50;;;22.60;99.90;;;;;;5038319;28;20514;-77
2021/07/12 02:32:37;;;;;;;8.57;7.77;;;22.50;99.90;;;;;;5056260;28;20449;-77
2021/07/12 02:35:07;;;;;;;8.90;8.20;;;22.70;99.90;;;;;;5055321;28;20960;-76
2021/07/12 02:37:37;;;;;;;7.47;6.83;;;22.50;99.90;;;;;;5048022;28;20446;-77
2021/07/12 02:40:08;;;;;;;7.60;7.00;;;22.50;99.90;;;;;;5036781;28;20517;-77
2021/07/12 02:42:35;;;;;;;8.20;7.50;;;22.50;99.90;;;;;;5040104;28;20437;-77
2021/07/12 02:45:03;;;;;;;6.93;6.37;;;22.80;99.90;;;;;;5043951;28;20917;-78
2021/07/12 02:47:30;;;;;;;7.10;6.40;;;22.40;99.90;;;;;;5035139;28;20508;-77
2021/07/12 02:49:57;;;;;;;7.67;6.90;;;22.60;99.90;;;;;;5044794;28;20800;-77
2021/07/12 02:52:29;;;;;;;7.57;6.97;;;22.40;99.90;;;;;;5045342;28;20446;-77
2021/07/12 02:54:59;;;;;;;8.33;7.47;;;22.50;99.90;;;;;;5042555;28;20461;-77
2021/07/12 02:57:27;;;;;;;7.23;6.63;;;22.50;99.90;;;;;;5054930;28;20449;-77
2021/07/12 02:59:54;;;;;;;8.70;8.00;;;22.50;99.90;;;;;;5054157;28;20485;-78
2021/07/12 03:02:21;;;;;;;7.70;7.10;;;22.40;99.90;;;;;;5048434;28;20446;-77
2021/07/12 03:04:48;;;;;;;7.43;6.83;;;22.30;99.90;;;;;;5035858;28;20446;-78
2021/07/12 03:07:20;;;;;;;8.07;7.33;;;22.40;99.90;;;;;;5041525;28;20450;-77
2021/07/12 03:09:49;;;;;;;7.23;6.63;;;22.50;99.90;;;;;;5046460;28;20449;-77
2021/07/12 03:12:23;;;;;;;8.40;7.60;;;22.30;99.90;;;;;;5036445;28;20902;-77
2021/07/12 03:15:03;;;;;;;8.53;7.77;;;22.70;99.90;;;;;;5051453;28;20445;-79
2021/07/12 03:17:30;;;;;;;8.60;7.20;;;22.30;99.90;;;;;;5055609;28;20441;-79
2021/07/12 03:19:59;;;;;;;8.43;7.63;;;22.40;99.90;;;;;;5052889;28;20473;-80
2021/07/12 03:22:27;;;;;;;7.87;7.20;;;22.40;99.90;;;;;;5035414;28;20474;-79
2021/07/12 03:24:56;;;;;;;7.90;7.20;;;22.20;99.90;;;;;;5046698;28;20458;-77
2021/07/12 03:27:24;;;;;;;7.30;6.60;;;22.30;99.90;;;;;;5055482;28;20441;-77
2021/07/12 03:29:54;;;;;;;8.43;7.72;;;22.30;99.90;;;;;;5051221;28;20452;-77
2021/07/12 03:32:23;;;;;;;8.88;7.90;;;22.30;99.90;;;;;;5054167;28;20196;-77
2021/07/12 03:34:51;;;;;;;7.83;7.20;;;22.30;99.90;;;;;;5049740;28;20203;-78
2021/07/12 03:37:19;;;;;;;8.67;7.97;;;22.40;99.90;;;;;;5042487;28;20489;-80
2021/07/12 03:39:47;;;;;;;8.40;7.70;;;22.20;99.90;;;;;;5049706;28;20450;-79
2021/07/12 03:42:14;;;;;;;8.00;7.30;;;22.20;99.90;;;;;;5040630;28;20454;-80
2021/07/12 03:44:40;;;;;;;8.30;7.60;;;22.00;99.90;;;;;;5041996;28;20433;-80
2021/07/12 03:47:09;;;;;;;7.90;7.27;;;22.30;99.90;;;;;;5036930;28;20797;-80
2021/07/12 03:49:35;;;;;;;7.50;6.90;;;22.30;99.90;;;;;;5044648;28;20454;-79
2021/07/12 03:52:03;;;;;;;6.88;6.28;;;22.30;99.90;;;;;;5044278;28;20462;-79
2021/07/12 03:54:29;;;;;;;8.67;7.87;;;22.30;99.90;;;;;;5045065;28;20195;-77
2021/07/12 03:56:56;;;;;;;7.97;7.27;;;22.20;99.90;;;;;;5049541;28;20803;-77
2021/07/12 03:59:22;;;;;;;8.30;7.60;;;22.20;99.90;;;;;;5052835;28;20806;-77
2021/07/12 04:01:49;;;;;;;7.70;7.07;;;22.30;99.90;;;;;;5039997;28;20461;-77
2021/07/12 04:04:17;;;;;;;8.77;7.97;;;22.30;99.90;;;;;;5052988;28;20477;-77
2021/07/12 04:06:44;;;;;;;9.30;8.50;;;22.10;99.90;;;;;;5039176;28;20443;-80
2021/07/12 04:09:11;;;;;;;8.20;7.50;;;22.20;99.90;;;;;;5044974;28;20453;-81
2021/07/12 04:11:38;;;;;;;8.33;7.63;;;22.20;99.90;;;;;;5042747;28;20450;-80
2021/07/12 04:14:05;;;;;;;8.13;7.43;;;22.20;99.90;;;;;;5053169;28;20445;-79
2021/07/12 04:16:32;;;;;;;7.83;7.23;;;22.20;99.90;;;;;;5051370;28;20486;-79
2021/07/12 04:18:59;;;;;;;8.43;7.63;;;22.40;99.90;;;;;;5042623;28;20450;-79
2021/07/12 04:21:27;;;;;;;7.10;6.50;;;22.10;99.90;;;;;;5039172;28;20454;-79
2021/07/12 04:23:53;;;;;;;8.50;7.80;;;22.20;99.90;;;;;;5043560;28;21183;-78
2021/07/12 04:26:20;;;;;;;8.47;7.70;;;22.00;99.90;;;;;;5041307;28;20687;-79
2021/07/12 04:28:47;;;;;;;8.00;7.40;;;22.10;99.90;;;;;;5043244;28;20438;-78
2021/07/12 04:31:14;;;;;;;8.53;7.73;;;22.00;99.90;;;;;;5048965;28;20454;-78
2021/07/12 04:33:41;;;;;;;7.90;7.20;;;22.10;99.90;;;;;;5033322;28;20486;-79
2021/07/12 04:36:08;;;;;;;8.97;8.17;;;22.10;99.90;;;;;;5033687;28;20218;-80
2021/07/12 04:38:36;;;;;;;8.43;7.53;;;22.20;99.90;;;;;;5039042;28;20450;-79
2021/07/12 04:41:03;;;;;;;8.80;8.05;;;22.20;99.90;;;;;;5038751;28;20455;-78
2021/07/12 04:43:29;;;;;;;8.77;8.07;;;22.20;99.90;;;;;;5049411;28;20202;-79
2021/07/12 04:45:56;;;;;;;10.77;9.87;;;21.80;99.90;;;;;;5036401;28;20439;-78
2021/07/12 04:48:23;;;;;;;11.07;10.13;;;22.50;99.90;;;;;;5037225;28;20441;-78
2021/07/12 04:50:50;;;;;;;9.87;8.97;;;22.20;99.90;;;;;;5053798;28;20445;-78
2021/07/12 04:53:16;;;;;;;10.47;9.57;;;22.20;99.90;;;;;;5053624;28;20449;-80
2021/07/12 04:55:44;;;;;;;9.87;8.97;;;22.20;99.90;;;;;;5043156;28;20446;-77
2021/07/12 04:58:11;;;;;;;8.90;8.00;;;22.20;99.90;;;;;;5034333;28;20442;-76
2021/07/12 05:00:38;;;;;;;8.20;7.40;;;22.80;99.90;;;;;;5051424;28;20454;-77
2021/07/12 05:03:06;;;;;;;7.40;6.80;;;22.10;99.90;;;;;;5053582;28;20531;-77
2021/07/12 05:05:33;;;;;;;8.77;7.97;;;22.10;99.90;;;;;;5048768;28;20509;-77
2021/07/12 05:08:00;;;;;;;7.60;6.90;;;22.60;99.90;;;;;;5047853;28;20518;-79
2021/07/12 05:10:26;;;;;;;8.73;7.97;;;22.30;99.90;;;;;;5033659;28;20459;-77
2021/07/12 05:12:54;;;;;;;9.83;8.97;;;22.10;99.90;;;;;;5033401;28;20446;-82
2021/07/12 05:15:21;;;;;;;8.33;7.60;;;22.20;99.90;;;;;;5039933;28;20465;-77
2021/07/12 05:17:48;;;;;;;10.70;9.70;;;22.20;99.90;;;;;;5051481;28;20473;-78
2021/07/12 05:20:15;;;;;;;10.47;9.43;;;22.20;99.90;;;;;;5051794;28;20203;-78
2021/07/12 05:22:42;;;;;;;9.77;8.97;;;22.20;99.90;;;;;;5053155;28;20841;-79
2021/07/12 05:25:10;;;;;;;9.10;8.27;;;22.20;99.90;;;;;;5034236;28;20446;-78
2021/07/12 05:27:36;;;;;;;8.80;8.00;;;22.20;99.90;;;;;;5033387;28;20949;-78
2021/07/12 05:30:07;;;;;;;16.33;8.50;;;22.20;99.90;;;;;;5045195;28;20485;-81
2021/07/12 05:32:33;;;;;;;7.63;6.83;;;22.20;99.90;;;;;;5052274;28;20199;-81
2021/07/12 05:35:00;;;;;;;8.00;7.27;;;22.20;99.90;;;;;;5050478;28;20708;-82
2021/07/12 05:37:27;;;;;;;7.67;7.07;;;22.30;99.90;;;;;;5036007;28;20474;-80
2021/07/12 05:39:53;;;;;;;8.13;7.43;;;22.30;99.90;;;;;;5043006;28;20480;-82
2021/07/12 05:42:20;;;;;;;7.77;7.13;;;22.30;99.90;;;;;;5053261;28;20453;-80
2021/07/12 05:44:46;;;;;;;8.57;7.83;;;22.40;99.90;;;;;;5045811;28;20516;-79
2021/07/12 05:47:14;;;;;;;8.60;7.77;;;22.40;99.90;;;;;;5042144;28;20457;-78
2021/07/12 05:49:41;;;;;;;8.07;7.37;;;22.50;99.90;;;;;;5042060;28;20786;-79
2021/07/12 05:52:08;;;;;;;8.83;8.13;;;22.60;99.90;;;;;;5035305;28;20446;-78
2021/07/12 05:54:35;;;;;;;7.50;6.80;;;22.60;99.90;;;;;;5032845;28;20447;-77
2021/07/12 05:57:01;;;;;;;7.03;6.50;;;22.70;99.90;;;;;;5033340;28;20885;-78
2021/07/12 05:59:28;;;;;;;7.10;6.50;;;22.70;99.90;;;;;;5033662;28;20782;-77
2021/07/12 06:01:55;;;;;;;8.50;7.80;;;22.70;99.90;;;;;;5052751;28;20449;-78
2021/07/12 06:04:23;;;;;;;7.73;7.10;;;22.70;99.90;;;;;;5037108;28;20454;-78
2021/07/12 06:06:50;;;;;;;7.60;6.90;;;22.80;99.90;;;;;;5049301;28;20445;-77
2021/07/12 06:09:16;;;;;;;7.60;7.00;;;22.80;99.90;;;;;;5038522;28;20454;-78
2021/07/12 06:11:43;;;;;;;7.33;6.73;;;22.90;99.90;;;;;;5032569;28;20458;-78
2021/07/12 06:14:10;;;;;;;7.43;6.60;;;23.00;99.90;;;;;;5048982;28;20473;-76
2021/07/12 06:16:37;;;;;;;7.40;6.83;;;23.10;99.90;;;;;;5041668;28;20837;-77
2021/07/12 06:19:04;;;;;;;7.80;7.00;;;23.10;99.90;;;;;;5037791;28;20446;-78
2021/07/12 06:21:32;;;;;;;7.13;6.50;;;23.20;99.90;;;;;;5051963;28;20446;-78
2021/07/12 06:23:58;;;;;;;7.37;6.80;;;23.20;99.90;;;;;;5050980;28;20485;-79
2021/07/12 06:26:25;;;;;;;6.57;6.07;;;23.20;99.90;;;;;;5049908;28;20446;-80
2021/07/12 06:28:52;;;;;;;7.00;6.37;;;23.20;99.90;;;;;;5036723;28;20447;-78
2021/07/12 06:31:19;;;;;;;7.30;6.70;;;23.20;99.90;;;;;;5036403;28;20441;-81
2021/07/12 06:33:45;;;;;;;6.97;6.33;;;23.20;99.90;;;;;;5042062;28;20789;-77
2021/07/12 06:36:12;;;;;;;6.23;5.63;;;23.20;99.90;;;;;;5043808;28;20469;-82
2021/07/12 06:38:41;;;;;;;6.50;6.00;;;23.30;99.90;;;;;;5041178;28;20443;-78
2021/07/12 06:41:08;;;;;;;6.80;6.17;;;23.40;99.90;;;;;;5031483;28;20477;-81
2021/07/12 06:43:34;;;;;;;7.50;6.90;;;23.50;99.90;;;;;;5033287;28;20446;-76
2021/07/12 06:46:01;;;;;;;6.97;6.27;;;23.50;99.90;;;;;;5039360;28;20449;-78
2021/07/12 06:48:28;;;;;;;7.00;6.40;;;23.70;99.90;;;;;;5054707;28;20456;-76
2021/07/12 06:50:56;;;;;;;6.53;6.03;;;23.70;99.90;;;;;;5039280;28;20446;-77
2021/07/12 06:53:23;;;;;;;6.63;6.13;;;23.80;99.90;;;;;;5034980;28;20465;-77
2021/07/12 06:55:51;;;;;;;6.13;5.63;;;23.80;99.90;;;;;;5034922;28;20442;-77
2021/07/12 06:58:17;;;;;;;6.70;6.20;;;24.00;99.90;;;;;;5037302;28;20486;-77
2021/07/12 07:00:44;;;;;;;5.50;5.00;;;24.00;99.90;;;;;;5042044;28;20446;-76
2021/07/12 07:03:11;;;;;;;6.30;5.80;;;24.20;99.90;;;;;;5038214;28;20466;-75
2021/07/12 07:05:38;;;;;;;5.80;4.90;;;24.30;99.90;;;;;;5044539;28;20454;-76
2021/07/12 07:08:05;;;;;;;5.37;4.97;;;24.40;99.90;;;;;;5047762;28;20430;-76
2021/07/12 07:10:32;;;;;;;6.53;5.93;;;24.40;99.90;;;;;;5041179;28;20450;-76
2021/07/12 07:12:59;;;;;;;6.00;5.60;;;24.60;99.90;;;;;;5039944;28;20451;-72
2021/07/12 07:15:26;;;;;;;5.60;5.20;;;24.50;99.90;;;;;;5039138;28;20905;-72
2021/07/12 07:17:54;;;;;;;6.50;6.10;;;24.60;99.90;;;;;;5043089;28;20481;-71
2021/07/12 07:20:21;;;;;;;5.50;5.00;;;24.60;99.90;;;;;;5044589;28;20446;-72
2021/07/12 07:22:48;;;;;;;5.20;4.80;;;24.70;99.90;;;;;;5040922;28;20485;-70
2021/07/12 07:25:15;;;;;;;5.97;5.47;;;24.80;99.90;;;;;;5046662;28;20446;-77
2021/07/12 07:27:42;;;;;;;4.83;4.43;;;24.90;99.90;;;;;;5039085;28;20948;-76
2021/07/12 07:30:12;;;;;;;6.37;5.77;;;24.90;99.90;;;;;;5043679;28;20747;-76
2021/07/12 07:32:39;;;;;;;5.83;5.33;;;25.00;99.90;;;;;;5041926;28;20903;-77
2021/07/12 07:35:08;;;;;;;5.50;5.10;;;25.10;99.90;;;;;;5046779;28;20449;-76
2021/07/12 07:37:35;;;;;;;6.00;5.40;;;25.10;99.90;;;;;;5055137;28;20500;-77
2021/07/12 07:40:04;;;;;;;6.40;5.90;;;25.00;99.90;;;;;;5034884;28;20458;-77
2021/07/12 07:42:30;;;;;;;5.67;5.20;;;25.20;99.90;;;;;;5043560;28;20446;-77
2021/07/12 07:45:00;;;;;;;5.37;5.00;;;25.20;99.90;;;;;;5035172;28;20449;-76
2021/07/12 07:47:28;;;;;;;8.90;7.00;;;25.20;99.90;;;;;;5034590;28;20447;-76
2021/07/12 07:49:55;;;;;;;6.70;6.20;;;25.20;99.90;;;;;;5035647;28;20473;-76
2021/07/12 07:52:22;;;;;;;6.07;5.57;;;25.20;99.90;;;;;;5035063;28;20447;-76
2021/07/12 07:54:50;;;;;;;5.20;4.70;;;25.30;99.90;;;;;;5034063;28;20790;-77
2021/07/12 07:57:17;;;;;;;4.53;4.23;;;25.40;99.90;;;;;;5033647;28;20478;-77
2021/07/12 07:59:44;;;;;;;5.50;5.10;;;25.40;99.90;;;;;;5043818;28;20470;-77
2021/07/12 08:02:10;;;;;;;5.27;4.87;;;25.50;99.90;;;;;;5053304;28;20446;-77
2021/07/12 08:04:38;;;;;;;5.07;4.63;;;25.60;99.90;;;;;;5037864;28;20459;-76
2021/07/12 08:07:06;;;;;;;5.80;5.20;;;25.70;99.90;;;;;;5041743;28;20447;-77
2021/07/12 08:09:33;;;;;;;4.90;4.50;;;25.80;99.90;;;;;;5033278;28;20450;-76
2021/07/12 08:12:00;;;;;;;4.30;4.00;;;25.80;99.90;;;;;;5038766;28;20454;-78
2021/07/12 08:14:27;;;;;;;5.57;5.07;;;25.90;99.90;;;;;;5042697;28;20930;-78
2021/07/12 08:16:53;;;;;;;5.07;4.67;;;26.00;99.90;;;;;;5044174;28;20484;-85
2021/07/12 08:19:20;;;;;;;5.07;4.67;;;26.10;99.90;;;;;;5041550;28;20439;-86
2021/07/12 08:21:48;;;;;;;6.87;5.77;;;26.20;99.90;;;;;;5038647;28;20466;-86
2021/07/12 08:24:15;;;;;;;5.90;5.50;;;26.20;99.90;;;;;;5038421;28;20442;-77
2021/07/12 08:26:41;;;;;;;6.17;5.00;;;26.30;99.90;;;;;;5039201;28;20455;-77
2021/07/12 08:29:09;;;;;;;5.23;4.83;;;26.40;99.90;;;;;;5042020;28;20453;-80
2021/07/12 08:31:35;;;;;;;5.20;4.70;;;26.50;99.90;;;;;;5051801;28;20441;-80
2021/07/12 08:34:02;;;;;;;4.83;4.47;;;26.60;99.90;;;;;;5041646;28;20450;-82
2021/07/12 08:36:29;;;;;;;4.67;4.27;;;26.60;99.90;;;;;;5043468;28;20818;-81
2021/07/12 08:38:56;;;;;;;4.87;4.50;;;26.70;99.90;;;;;;5036986;28;20490;-76
2021/07/12 08:41:24;;;;;;;3.63;3.30;;;26.70;99.90;;;;;;5030854;28;20504;-74
2021/07/12 08:43:52;;;;;;;5.57;5.17;;;26.80;99.90;;;;;;5049603;28;20445;-76
2021/07/12 08:46:19;;;;;;;6.50;5.90;;;26.90;99.90;;;;;;5053444;28;20441;-72
2021/07/12 08:48:45;;;;;;;5.50;4.87;;;26.80;99.90;;;;;;5033895;28;20443;-72
2021/07/12 08:51:13;;;;;;;4.57;4.17;;;26.70;99.90;;;;;;5033281;28;20720;-73
2021/07/12 08:53:40;;;;;;;5.20;4.80;;;26.60;99.90;;;;;;5034021;28;20509;-73
2021/07/12 08:56:08;;;;;;;4.87;4.47;;;26.60;99.90;;;;;;5046952;28;20442;-73
2021/07/12 08:58:35;;;;;;;5.20;4.80;;;26.50;99.90;;;;;;5053208;28;20485;-72
2021/07/12 09:01:04;;;;;;;4.60;4.20;;;26.50;99.90;;;;;;5053010;28;20457;-73
2021/07/12 09:03:32;;;;;;;4.10;3.80;;;26.40;99.90;;;;;;5053089;28;20477;-77
2021/07/12 09:06:02;;;;;;;5.57;5.17;;;26.40;99.90;;;;;;5051882;28;20908;-75
2021/07/12 09:08:54;;;;;;;5.60;5.10;;;26.50;99.90;;;;;;5037045;28;20446;-73
2021/07/12 09:11:26;;;;;;;6.00;5.50;;;26.50;99.90;;;;;;5030667;28;20797;-73
2021/07/12 09:13:55;;;;;;;4.53;4.23;;;26.50;99.90;;;;;;5052842;28;20508;-75
2021/07/12 09:16:37;;;;;;;5.43;4.93;;;26.50;99.90;;;;;;5052724;28;20495;-72
2021/07/12 09:19:06;;;;;;;5.43;4.93;;;26.60;99.90;;;;;;5032204;28;20471;-73
2021/07/12 09:21:33;;;;;;;5.40;5.00;;;26.60;99.90;;;;;;5031820;28;20454;-76
2021/07/12 09:24:16;;;;;;;5.47;5.03;;;26.60;99.90;;;;;;5032028;28;20506;-73
2021/07/12 09:26:48;;;;;;;6.17;5.67;;;26.70;99.90;;;;;;5031881;28;21021;-73
2021/07/12 09:29:16;;;;;;;6.30;5.80;;;26.80;99.90;;;;;;5032498;28;20426;-73
2021/07/12 09:31:43;;;;;;;5.50;5.00;;;26.80;99.90;;;;;;5031655;28;20454;-74
2021/07/12 09:34:10;;;;;;;5.13;4.83;;;26.80;99.90;;;;;;5032573;28;20443;-74
2021/07/12 09:36:36;;;;;;;4.63;4.33;;;26.90;99.90;;;;;;5033245;28;20756;-74
2021/07/12 09:39:22;;;;;;;5.13;4.73;;;26.90;99.90;;;;;;5032149;28;20471;-75
2021/07/12 09:41:51;;;;;;;5.67;5.20;;;26.80;99.90;;;;;;5039251;28;20897;-74
2021/07/12 09:44:22;;;;;;;5.83;5.07;;;26.80;99.90;;;;;;5038112;28;20447;-73
2021/07/12 09:46:49;;;;;;;5.63;5.23;;;26.70;99.90;;;;;;5050777;28;20454;-74
2021/07/12 09:49:20;;;;;;;4.60;4.30;;;26.60;99.90;;;;;;5053466;28;20433;-74
2021/07/12 09:51:46;;;;;;;6.43;5.57;;;26.60;99.90;;;;;;5052681;28;20434;-74
2021/07/12 09:54:21;;;;;;;4.50;4.20;;;26.70;99.90;;;;;;5052997;28;20441;-75
2021/07/12 09:56:51;;;;;;;5.40;5.00;;;26.60;99.90;;;;;;5052849;28;20442;-75
2021/07/12 09:59:19;;;;;;;6.10;5.60;;;26.70;99.90;;;;;;5033192;28;20954;-73
2021/07/12 10:01:47;;;;;;;5.30;4.90;;;26.60;99.90;;;;;;5032735;28;20457;-74
2021/07/12 10:04:14;;;;;;;6.00;5.40;;;26.50;99.90;;;;;;5032960;28;20443;-76
2021/07/12 10:06:42;;;;;;;6.30;5.80;;;26.50;99.90;;;;;;5033879;28;20473;-76
2021/07/12 10:09:09;;;;;;;5.23;4.80;;;26.50;99.90;;;;;;5052822;28;20442;-73
2021/07/12 10:11:36;;;;;;;7.37;6.77;;;26.60;99.90;;;;;;5051891;28;20495;-74
2021/07/12 10:14:04;;;;;;;5.63;5.23;;;26.60;99.90;;;;;;5050809;28;20453;-76
2021/07/12 10:16:31;;;;;;;5.20;4.80;;;26.60;99.90;;;;;;5051454;28;20537;-73
2021/07/12 10:18:58;;;;;;;4.93;4.53;;;26.60;99.90;;;;;;5047601;28;20481;-73
2021/07/12 10:21:25;;;;;;;5.67;5.27;;;26.70;99.90;;;;;;5035998;28;20473;-74
2021/07/12 10:23:57;;;;;;;4.97;4.57;;;26.60;99.90;;;;;;5035049;28;20482;-74
2021/07/12 10:26:46;;;;;;;5.67;5.17;;;26.60;99.90;;;;;;5034370;28;20828;-73
2021/07/12 10:29:16;;;;;;;5.43;4.93;;;26.60;99.90;;;;;;5034637;28;20447;-75
2021/07/12 10:31:58;;;;;;;5.10;4.70;;;26.60;99.90;;;;;;5033484;28;20442;-73
2021/07/12 10:34:28;;;;;;;6.03;5.53;;;26.60;99.90;;;;;;5037346;28;20770;-76
2021/07/12 10:37:03;;;;;;;5.67;5.17;;;26.70;99.90;;;;;;5043437;28;20462;-74
2021/07/12 10:40:15;;;;;;;5.00;4.60;;;26.70;99.90;;;;;;5034580;28;20508;-75
2021/07/12 10:42:55;;;;;;;5.53;5.10;;;26.70;99.90;;;;;;5035212;28;20544;-76
2021/07/12 10:45:40;;;;;;;5.40;5.00;;;26.70;99.90;;;;;;5043902;28;20442;-80
2021/07/12 10:48:10;;;;;;;5.83;5.33;;;26.70;99.90;;;;;;5048409;28;20431;-75
2021/07/12 10:50:38;;;;;;;5.37;4.97;;;26.70;99.90;;;;;;5035728;28;20928;-77
2021/07/12 10:53:45;;;;;;;5.50;5.10;;;26.70;99.90;;;;;;5034923;28;20451;-81
2021/07/12 10:56:17;;;;;;;5.30;4.90;;;26.70;99.90;;;;;;5039129;28;20460;-75
2021/07/12 10:58:51;;;;;;;5.43;5.03;;;26.80;99.90;;;;;;5035697;28;20493;-77
2021/07/12 11:01:38;;;;;;;5.00;4.60;;;26.70;99.90;;;;;;5037793;28;20451;-74
2021/07/12 11:04:36;;;;;;;5.37;4.87;;;26.70;99.90;;;;;;5036503;28;20785;-76
2021/07/12 11:07:05;;;;;;;4.57;4.17;;;26.70;99.90;;;;;;5039228;28;20461;-84
2021/07/12 11:10:03;;;;;;;4.73;4.37;;;26.80;99.90;;;;;;5052600;28;20785;-75
2021/07/12 11:12:33;;;;;;;5.23;4.83;;;26.80;99.90;;;;;;5054611;28;20457;-77
2021/07/12 11:15:08;;;;;;;4.60;4.30;;;26.80;99.90;;;;;;5055918;28;20445;-75
2021/07/12 11:18:01;;;;;;;5.93;5.43;;;26.80;99.90;;;;;;5055833;28;20452;-77
2021/07/12 11:20:56;;;;;;;5.70;5.30;;;26.80;99.90;;;;;;5050873;28;20446;-76
2021/07/12 11:23:50;;;;;;;6.13;5.60;;;26.80;99.90;;;;;;5052887;28;20477;-75
2021/07/12 11:26:51;;;;;;;4.50;4.20;;;26.70;99.90;;;;;;5018294;28;20464;-74
2021/07/12 11:29:33;;;;;;;4.63;4.33;;;26.70;99.90;;;;;;5054645;28;20511;-75
2021/07/12 11:32:18;;;;;;;5.27;4.87;;;26.60;99.90;;;;;;5043007;28;20443;-76
2021/07/12 11:35:09;;;;;;;5.57;5.17;;;26.60;99.90;;;;;;5036349;28;20445;-75
2021/07/12 11:37:36;;;;;;;6.33;5.83;;;26.60;99.90;;;;;;5036147;28;21065;-74
2021/07/12 11:40:04;;;;;;;5.60;5.20;;;26.60;99.90;;;;;;5034807;28;20451;-73
2021/07/12 11:42:33;;;;;;;5.00;4.60;;;26.60;99.90;;;;;;5034994;28;20446;-73
2021/07/12 11:45:02;;;;;;;5.93;5.53;;;26.60;99.90;;;;;;5035076;28;20853;-73
2021/07/12 11:47:31;;;;;;;4.60;4.20;;;26.80;99.90;;;;;;5034834;28;20451;-79
2021/07/12 11:50:02;;;;;;;5.40;5.00;;;26.60;99.90;;;;;;5034546;28;20917;-76
2021/07/12 11:52:30;;;;;;;5.30;4.80;;;26.80;99.90;;;;;;5053250;28;20950;-73
2021/07/12 11:54:59;;;;;;;5.00;4.60;;;26.60;99.90;;;;;;5035396;28;20450;-73
2021/07/12 11:57:26;;;;;;;5.20;4.80;;;26.90;99.90;;;;;;5035066;28;20439;-76
2021/07/12 11:59:53;;;;;;;5.50;5.10;;;26.60;99.90;;;;;;5045901;28;20484;-73
2021/07/12 12:02:20;;;;;;;4.57;4.27;;;26.60;99.90;;;;;;5035334;28;20470;-73
2021/07/12 12:04:52;;;;;;;4.80;4.50;;;26.60;99.90;;;;;;5039921;28;20450;-77
2021/07/12 12:07:37;;;;;;;5.70;5.20;;;26.60;99.90;;;;;;5047534;28;20447;-78
2021/07/12 12:10:11;;;;;;;4.40;4.00;;;26.70;99.90;;;;;;5043557;28;20533;-75
2021/07/12 12:12:41;;;;;;;5.50;5.10;;;26.70;99.90;;;;;;5042648;28;20787;-74
2021/07/12 12:15:11;;;;;;;5.40;5.00;;;26.70;99.90;;;;;;5033413;28;20442;-74
2021/07/12 12:17:39;;;;;;;4.73;4.33;;;26.70;99.90;;;;;;5033202;28;20439;-76
2021/07/12 12:20:12;;;;;;;4.97;4.57;;;27.00;99.90;;;;;;5035218;28;20477;-73
2021/07/12 12:22:54;;;;;;;4.90;4.50;;;26.70;99.90;;;;;;5040172;28;20535;-75
2021/07/12 12:25:20;;;;;;;4.97;4.67;;;26.70;99.90;;;;;;5037620;28;20460;-79
2021/07/12 12:27:47;;;;;;;3.87;3.50;;;26.80;99.90;;;;;;5044142;28;20438;-77
2021/07/12 12:30:15;;;;;;;4.63;4.33;;;26.80;99.90;;;;;;5033029;28;20453;-77
2021/07/12 12:32:42;;;;;;;4.40;4.10;;;26.80;99.90;;;;;;5042667;28;20539;-76
2021/07/12 12:35:10;;;;;;;4.80;4.50;;;26.80;99.90;;;;;;5051344;28;20457;-78
2021/07/12 12:37:38;;;;;;;4.80;4.40;;;26.80;99.90;;;;;;5044112;28;20447;-75
2021/07/12 12:40:17;;;;;;;4.53;4.23;;;26.90;99.90;;;;;;5051437;28;20814;-76
2021/07/12 12:42:44;;;;;;;4.40;4.10;;;26.80;99.90;;;;;;5052383;28;20766;-75
2021/07/12 12:45:11;;;;;;;5.53;5.13;;;26.90;99.90;;;;;;5053153;28;20454;-76
2021/07/12 12:47:43;;;;;;;4.13;3.83;;;26.90;99.90;;;;;;5046516;28;20442;-78
2021/07/12 12:50:15;;;;;;;4.40;4.10;;;26.90;99.90;;;;;;5037436;28;20793;-75
2021/07/12 12:52:42;;;;;;;4.80;4.43;;;26.90;99.90;;;;;;5053121;28;20469;-81
2021/07/12 12:55:12;;;;;;;4.53;4.23;;;26.90;99.90;;;;;;5031078;28;20451;-85
2021/07/12 12:57:40;;;;;;;4.17;3.77;;;26.80;99.90;;;;;;5036935;28;20462;-74
2021/07/12 13:00:10;;;;;;;4.33;4.03;;;26.90;99.90;;;;;;5042001;28;20481;-76